sensor_id;sensor_type;location;lat;lon;timestamp;temperature;humidity
23562;DHT22;11959;49.418;8.728;2023-04-03T00:01:37;4.30;99.90
23562;DHT22;11959;49.418;8.728;2023-04-03T00:04:04;4.30;99.90
23562;DHT22;11959;49.418;8.728;2023-04-03T00:06:31;4.20;99.90
23562;DHT22;11959;49.418;8.728;2023-04-03T00:08:57;4.10;99.90
23562;DHT22;11959;49.418;8.728;2023-04-03T00:11:22;4.10;99.90
23562;DHT22;11959;49.418;8.728;2023-04-03T00:13:48;4.10;99.90
23562;DHT22;11959;49.418;8.728;2023-04-03T00:16:14;4.10;99.90
23562;DHT22;11959;49.418;8.728;2023-04-03T00:18:40;4.00;99.90
23562;DHT22;11959;49.418;8.728;2023-04-03T00:21:07;4.00;99.90
23562;DHT22;11959;49.418;8.728;2023-04-03T00:23:34;4.00;99.90
23562;DHT22;11959;49.418;8.728;2023-04-03T00:26:00;3.90;99.90
23562;DHT22;11959;49.418;8.728;2023-04-03T00:28:26;3.90;99.90
23562;DHT22;11959;49.418;8.728;2023-04-03T00:30:52;3.90;99.90
23562;DHT22;11959;49.418;8.728;2023-04-03T00:33:18;3.90;99.90
23562;DHT22;11959;49.418;8.728;2023-04-03T00:35:47;3.80;99.90
23562;DHT22;11959;49.418;8.728;2023-04-03T00:38:13;3.80;99.90
23562;DHT22;11959;49.418;8.728;2023-04-03T00:40:44;3.80;99.90
23562;DHT22;11959;49.418;8.728;2023-04-03T00:43:15;3.80;99.90
23562;DHT22;11959;49.418;8.728;2023-04-03T00:45:48;3.80;99.90
23562;DHT22;11959;49.418;8.728;2023-04-03T00:48:24;3.80;99.90
23562;DHT22;11959;49.418;8.728;2023-04-03T00:50:52;3.70;99.90
23562;DHT22;11959;49.418;8.728;2023-04-03T00:53:26;3.70;99.90
23562;DHT22;11959;49.418;8.728;2023-04-03T00:55:54;3.60;99.90
23562;DHT22;11959;49.418;8.728;2023-04-03T00:58:25;3.60;99.90
23562;DHT22;11959;49.418;8.728;2023-04-03T01:00:54;3.60;99.90
23562;DHT22;11959;49.418;8.728;2023-04-03T01:03:23;3.60;99.90
23562;DHT22;11959;49.418;8.728;2023-04-03T01:05:49;3.60;99.90
23562;DHT22;11959;49.418;8.728;2023-04-03T01:08:15;3.60;99.90
23562;DHT22;11959;49.418;8.728;2023-04-03T01:10:41;3.50;99.90
23562;DHT22;11959;49.418;8.728;2023-04-03T01:13:22;3.50;99.90
23562;DHT22;11959;49.418;8.728;2023-04-03T01:15:49;3.60;99.90
23562;DHT22;11959;49.418;8.728;2023-04-03T01:18:14;3.50;99.90
23562;DHT22;11959;49.418;8.728;2023-04-03T01:26:21;3.50;99.90
23562;DHT22;11959;49.418;8.728;2023-04-03T01:28:47;3.40;99.90
23562;DHT22;11959;49.418;8.728;2023-04-03T01:33:42;3.40;99.90
23562;DHT22;11959;49.418;8.728;2023-04-03T01:36:08;3.50;99.90
23562;DHT22;11959;49.418;8.728;2023-04-03T01:38:35;3.50;99.90
23562;DHT22;11959;49.418;8.728;2023-04-03T01:41:00;3.50;99.90
23562;DHT22;11959;49.418;8.728;2023-04-03T01:43:26;3.50;99.90
23562;DHT22;11959;49.418;8.728;2023-04-03T01:45:52;3.50;99.90
23562;DHT22;11959;49.418;8.728;2023-04-03T01:48:20;3.40;99.90
23562;DHT22;11959;49.418;8.728;2023-04-03T01:50:45;3.40;99.90
23562;DHT22;11959;49.418;8.728;2023-04-03T01:53:12;3.40;99.90
23562;DHT22;11959;49.418;8.728;2023-04-03T01:55:38;3.40;99.90
23562;DHT22;11959;49.418;8.728;2023-04-03T01:58:04;3.40;99.90
23562;DHT22;11959;49.418;8.728;2023-04-03T02:00:29;3.40;99.90
23562;DHT22;11959;49.418;8.728;2023-04-03T02:02:56;3.50;99.90
23562;DHT22;11959;49.418;8.728;2023-04-03T02:05:22;3.50;99.90
23562;DHT22;11959;49.418;8.728;2023-04-03T02:07:48;3.50;99.90
23562;DHT22;11959;49.418;8.728;2023-04-03T02:10:13;3.50;99.90
23562;DHT22;11959;49.418;8.728;2023-04-03T02:12:39;3.50;99.90
23562;DHT22;11959;49.418;8.728;2023-04-03T02:15:05;3.50;99.90
23562;DHT22;11959;49.418;8.728;2023-04-03T02:17:31;3.50;99.90
23562;DHT22;11959;49.418;8.728;2023-04-03T02:19:57;3.50;99.90
23562;DHT22;11959;49.418;8.728;2023-04-03T02:22:22;3.40;99.90
23562;DHT22;11959;49.418;8.728;2023-04-03T02:24:48;3.40;99.90
23562;DHT22;11959;49.418;8.728;2023-04-03T02:27:14;3.50;99.90
23562;DHT22;11959;49.418;8.728;2023-04-03T02:29:40;3.40;99.90
23562;DHT22;11959;49.418;8.728;2023-04-03T02:32:05;3.40;99.90
23562;DHT22;11959;49.418;8.728;2023-04-03T02:34:31;3.40;99.90
23562;DHT22;11959;49.418;8.728;2023-04-03T02:36:56;3.40;99.90
23562;DHT22;11959;49.418;8.728;2023-04-03T02:39:22;3.40;99.90
23562;DHT22;11959;49.418;8.728;2023-04-03T02:41:48;3.40;99.90
23562;DHT22;11959;49.418;8.728;2023-04-03T02:44:14;3.30;99.90
23562;DHT22;11959;49.418;8.728;2023-04-03T02:46:40;3.40;99.90
23562;DHT22;11959;49.418;8.728;2023-04-03T02:49:05;3.30;99.90
23562;DHT22;11959;49.418;8.728;2023-04-03T02:51:32;3.30;99.90
23562;DHT22;11959;49.418;8.728;2023-04-03T02:53:57;3.30;99.90
23562;DHT22;11959;49.418;8.728;2023-04-03T02:56:23;3.20;99.90
23562;DHT22;11959;49.418;8.728;2023-04-03T02:58:49;3.20;99.90
23562;DHT22;11959;49.418;8.728;2023-04-03T03:01:15;3.20;99.90
23562;DHT22;11959;49.418;8.728;2023-04-03T03:03:40;3.20;99.90
23562;DHT22;11959;49.418;8.728;2023-04-03T03:06:09;3.10;99.90
23562;DHT22;11959;49.418;8.728;2023-04-03T03:08:35;3.10;99.90
23562;DHT22;11959;49.418;8.728;2023-04-03T03:11:02;3.10;99.90
23562;DHT22;11959;49.418;8.728;2023-04-03T03:13:28;3.10;99.90
23562;DHT22;11959;49.418;8.728;2023-04-03T03:15:53;3.10;99.90
23562;DHT22;11959;49.418;8.728;2023-04-03T03:18:19;3.00;99.90
23562;DHT22;11959;49.418;8.728;2023-04-03T03:20:45;3.00;99.90
23562;DHT22;11959;49.418;8.728;2023-04-03T03:23:11;3.00;99.90
23562;DHT22;11959;49.418;8.728;2023-04-03T03:25:40;3.00;99.90
23562;DHT22;11959;49.418;8.728;2023-04-03T03:28:06;3.00;99.90
23562;DHT22;11959;49.418;8.728;2023-04-03T03:30:32;3.00;99.90
23562;DHT22;11959;49.418;8.728;2023-04-03T03:32:58;3.00;99.90
23562;DHT22;11959;49.418;8.728;2023-04-03T03:35:23;3.00;99.90
23562;DHT22;11959;49.418;8.728;2023-04-03T03:37:49;3.00;99.90
23562;DHT22;11959;49.418;8.728;2023-04-03T03:40:15;3.00;99.90
23562;DHT22;11959;49.418;8.728;2023-04-03T03:42:41;3.10;99.90
23562;DHT22;11959;49.418;8.728;2023-04-03T03:45:07;3.00;99.90
23562;DHT22;11959;49.418;8.728;2023-04-03T03:47:33;3.00;99.90
23562;DHT22;11959;49.418;8.728;2023-04-03T03:49:58;3.00;99.90
23562;DHT22;11959;49.418;8.728;2023-04-03T03:52:25;3.00;99.90
23562;DHT22;11959;49.418;8.728;2023-04-03T03:54:51;3.00;99.90
23562;DHT22;11959;49.418;8.728;2023-04-03T03:57:17;3.00;99.90
23562;DHT22;11959;49.418;8.728;2023-04-03T03:59:42;2.90;99.90
23562;DHT22;11959;49.418;8.728;2023-04-03T04:02:10;2.90;99.90
23562;DHT22;11959;49.418;8.728;2023-04-03T04:04:36;2.90;99.90
23562;DHT22;11959;49.418;8.728;2023-04-03T04:07:02;2.90;99.90
23562;DHT22;11959;49.418;8.728;2023-04-03T04:09:27;2.90;99.90
23562;DHT22;11959;49.418;8.728;2023-04-03T04:11:53;2.90;99.90
23562;DHT22;11959;49.418;8.728;2023-04-03T04:14:19;2.80;99.90
23562;DHT22;11959;49.418;8.728;2023-04-03T04:16:48;2.80;99.90
23562;DHT22;11959;49.418;8.728;2023-04-03T04:19:14;2.80;99.90
23562;DHT22;11959;49.418;8.728;2023-04-03T04:21:40;2.80;99.90
23562;DHT22;11959;49.418;8.728;2023-04-03T04:24:07;2.80;99.90
23562;DHT22;11959;49.418;8.728;2023-04-03T04:26:33;2.70;99.90
23562;DHT22;11959;49.418;8.728;2023-04-03T04:28:59;2.60;99.90
23562;DHT22;11959;49.418;8.728;2023-04-03T04:31:25;2.60;99.90
23562;DHT22;11959;49.418;8.728;2023-04-03T04:33:51;2.60;99.90
23562;DHT22;11959;49.418;8.728;2023-04-03T04:36:16;2.60;99.90
23562;DHT22;11959;49.418;8.728;2023-04-03T04:38:42;2.60;99.90
23562;DHT22;11959;49.418;8.728;2023-04-03T04:41:08;2.60;99.90
23562;DHT22;11959;49.418;8.728;2023-04-03T04:43:34;2.50;99.90
23562;DHT22;11959;49.418;8.728;2023-04-03T04:46:04;2.50;99.90
23562;DHT22;11959;49.418;8.728;2023-04-03T04:48:30;2.40;99.90
23562;DHT22;11959;49.418;8.728;2023-04-03T04:50:56;2.40;99.90
23562;DHT22;11959;49.418;8.728;2023-04-03T04:53:22;2.40;99.90
23562;DHT22;11959;49.418;8.728;2023-04-03T04:55:47;2.40;99.90
23562;DHT22;11959;49.418;8.728;2023-04-03T04:58:13;2.40;99.90
23562;DHT22;11959;49.418;8.728;2023-04-03T05:00:39;2.40;99.90
23562;DHT22;11959;49.418;8.728;2023-04-03T05:03:05;2.40;99.90
23562;DHT22;11959;49.418;8.728;2023-04-03T05:05:30;2.40;99.90
23562;DHT22;11959;49.418;8.728;2023-04-03T05:07:56;2.40;99.90
23562;DHT22;11959;49.418;8.728;2023-04-03T05:10:22;2.30;99.90
23562;DHT22;11959;49.418;8.728;2023-04-03T05:12:48;2.40;99.90
23562;DHT22;11959;49.418;8.728;2023-04-03T05:15:13;2.40;99.90
23562;DHT22;11959;49.418;8.728;2023-04-03T05:17:39;2.40;99.90
23562;DHT22;11959;49.418;8.728;2023-04-03T05:20:06;2.40;99.90
23562;DHT22;11959;49.418;8.728;2023-04-03T05:22:31;2.30;99.90
23562;DHT22;11959;49.418;8.728;2023-04-03T05:24:57;2.30;99.90
23562;DHT22;11959;49.418;8.728;2023-04-03T05:27:23;2.30;99.90
23562;DHT22;11959;49.418;8.728;2023-04-03T05:29:50;2.30;99.90
23562;DHT22;11959;49.418;8.728;2023-04-03T05:32:16;2.40;99.90
23562;DHT22;11959;49.418;8.728;2023-04-03T05:34:42;2.30;99.90
23562;DHT22;11959;49.418;8.728;2023-04-03T05:37:07;2.30;99.90
23562;DHT22;11959;49.418;8.728;2023-04-03T05:39:33;2.40;99.90
23562;DHT22;11959;49.418;8.728;2023-04-03T05:41:59;2.40;99.90
23562;DHT22;11959;49.418;8.728;2023-04-03T05:44:25;2.40;99.90
23562;DHT22;11959;49.418;8.728;2023-04-03T05:46:51;2.40;99.90
23562;DHT22;11959;49.418;8.728;2023-04-03T05:49:16;2.40;99.90
23562;DHT22;11959;49.418;8.728;2023-04-03T05:51:42;2.40;99.90
23562;DHT22;11959;49.418;8.728;2023-04-03T05:54:13;2.40;99.90
23562;DHT22;11959;49.418;8.728;2023-04-03T05:56:41;2.50;99.90
23562;DHT22;11959;49.418;8.728;2023-04-03T05:59:07;2.50;99.90
23562;DHT22;11959;49.418;8.728;2023-04-03T06:01:33;2.50;99.90
23562;DHT22;11959;49.418;8.728;2023-04-03T06:03:59;2.60;99.90
23562;DHT22;11959;49.418;8.728;2023-04-03T06:06:25;2.60;99.90
23562;DHT22;11959;49.418;8.728;2023-04-03T06:08:51;2.60;99.90
23562;DHT22;11959;49.418;8.728;2023-04-03T06:11:17;2.70;99.90
23562;DHT22;11959;49.418;8.728;2023-04-03T06:13:42;2.90;99.90
23562;DHT22;11959;49.418;8.728;2023-04-03T06:16:12;3.10;99.90
23562;DHT22;11959;49.418;8.728;2023-04-03T06:18:40;3.30;99.90
23562;DHT22;11959;49.418;8.728;2023-04-03T06:21:06;3.50;99.90
23562;DHT22;11959;49.418;8.728;2023-04-03T06:23:33;3.70;99.90
23562;DHT22;11959;49.418;8.728;2023-04-03T06:25:58;3.80;99.90
23562;DHT22;11959;49.418;8.728;2023-04-03T06:28:25;3.90;99.90
23562;DHT22;11959;49.418;8.728;2023-04-03T06:30:50;4.00;99.90
23562;DHT22;11959;49.418;8.728;2023-04-03T06:33:18;4.00;99.90
23562;DHT22;11959;49.418;8.728;2023-04-03T06:35:45;4.10;99.90
23562;DHT22;11959;49.418;8.728;2023-04-03T06:38:11;4.20;99.90
23562;DHT22;11959;49.418;8.728;2023-04-03T06:40:37;4.30;99.90
23562;DHT22;11959;49.418;8.728;2023-04-03T06:43:02;4.30;99.90
23562;DHT22;11959;49.418;8.728;2023-04-03T06:45:28;4.40;99.90
23562;DHT22;11959;49.418;8.728;2023-04-03T06:47:54;4.40;99.90
23562;DHT22;11959;49.418;8.728;2023-04-03T06:50:19;4.50;99.90
23562;DHT22;11959;49.418;8.728;2023-04-03T06:52:45;4.50;99.90
23562;DHT22;11959;49.418;8.728;2023-04-03T06:55:11;4.60;99.90
23562;DHT22;11959;49.418;8.728;2023-04-03T06:57:37;4.60;99.90
23562;DHT22;11959;49.418;8.728;2023-04-03T07:00:04;4.70;99.90
23562;DHT22;11959;49.418;8.728;2023-04-03T07:02:30;4.60;99.90
23562;DHT22;11959;49.418;8.728;2023-04-03T07:04:56;4.80;99.90
23562;DHT22;11959;49.418;8.728;2023-04-03T07:07:22;4.80;99.90
23562;DHT22;11959;49.418;8.728;2023-04-03T07:09:48;4.90;99.90
23562;DHT22;11959;49.418;8.728;2023-04-03T07:12:14;4.90;99.90
23562;DHT22;11959;49.418;8.728;2023-04-03T07:14:41;4.90;99.90
23562;DHT22;11959;49.418;8.728;2023-04-03T07:17:06;4.90;99.90
23562;DHT22;11959;49.418;8.728;2023-04-03T07:19:32;4.90;99.90
23562;DHT22;11959;49.418;8.728;2023-04-03T07:21:58;4.90;99.90
23562;DHT22;11959;49.418;8.728;2023-04-03T07:24:23;5.00;99.90
23562;DHT22;11959;49.418;8.728;2023-04-03T07:26:50;5.00;99.90
23562;DHT22;11959;49.418;8.728;2023-04-03T07:29:16;5.00;99.90
23562;DHT22;11959;49.418;8.728;2023-04-03T07:31:42;5.10;99.90
23562;DHT22;11959;49.418;8.728;2023-04-03T07:34:10;5.10;99.90
23562;DHT22;11959;49.418;8.728;2023-04-03T07:36:36;5.10;99.90
23562;DHT22;11959;49.418;8.728;2023-04-03T07:39:03;5.10;99.90
23562;DHT22;11959;49.418;8.728;2023-04-03T07:41:28;5.20;99.90
23562;DHT22;11959;49.418;8.728;2023-04-03T07:43:55;5.20;99.90
23562;DHT22;11959;49.418;8.728;2023-04-03T07:46:22;5.20;99.90
23562;DHT22;11959;49.418;8.728;2023-04-03T07:48:47;5.30;99.90
23562;DHT22;11959;49.418;8.728;2023-04-03T07:51:13;5.30;99.90
23562;DHT22;11959;49.418;8.728;2023-04-03T07:53:40;5.30;99.90
23562;DHT22;11959;49.418;8.728;2023-04-03T07:56:06;5.40;99.90
23562;DHT22;11959;49.418;8.728;2023-04-03T07:58:31;5.40;99.90
23562;DHT22;11959;49.418;8.728;2023-04-03T08:00:57;5.50;99.90
23562;DHT22;11959;49.418;8.728;2023-04-03T08:03:23;5.50;99.90
23562;DHT22;11959;49.418;8.728;2023-04-03T08:05:49;5.70;99.90
23562;DHT22;11959;49.418;8.728;2023-04-03T08:08:19;5.70;99.90
23562;DHT22;11959;49.418;8.728;2023-04-03T08:10:53;5.70;99.90
23562;DHT22;11959;49.418;8.728;2023-04-03T08:13:21;5.80;99.90
23562;DHT22;11959;49.418;8.728;2023-04-03T08:15:47;5.80;99.90
23562;DHT22;11959;49.418;8.728;2023-04-03T08:18:14;5.90;99.90
23562;DHT22;11959;49.418;8.728;2023-04-03T08:20:40;6.00;99.90
23562;DHT22;11959;49.418;8.728;2023-04-03T08:23:07;6.10;99.90
23562;DHT22;11959;49.418;8.728;2023-04-03T08:25:37;6.10;99.90
23562;DHT22;11959;49.418;8.728;2023-04-03T08:28:03;6.20;99.90
23562;DHT22;11959;49.418;8.728;2023-04-03T08:30:29;6.20;99.90
23562;DHT22;11959;49.418;8.728;2023-04-03T08:32:54;6.20;99.90
23562;DHT22;11959;49.418;8.728;2023-04-03T08:35:20;6.20;99.90
23562;DHT22;11959;49.418;8.728;2023-04-03T08:37:46;6.30;99.90
23562;DHT22;11959;49.418;8.728;2023-04-03T08:40:15;6.40;99.90
23562;DHT22;11959;49.418;8.728;2023-04-03T08:42:51;6.50;99.90
23562;DHT22;11959;49.418;8.728;2023-04-03T08:45:50;6.50;99.90
23562;DHT22;11959;49.418;8.728;2023-04-03T08:48:36;6.70;99.90
23562;DHT22;11959;49.418;8.728;2023-04-03T08:51:13;6.60;99.90
23562;DHT22;11959;49.418;8.728;2023-04-03T08:53:44;6.70;99.90
23562;DHT22;11959;49.418;8.728;2023-04-03T08:56:14;6.70;99.90
23562;DHT22;11959;49.418;8.728;2023-04-03T08:58:52;6.80;99.90
23562;DHT22;11959;49.418;8.728;2023-04-03T09:01:38;6.70;99.90
23562;DHT22;11959;49.418;8.728;2023-04-03T09:04:10;6.80;99.90
23562;DHT22;11959;49.418;8.728;2023-04-03T09:06:38;6.80;99.90
23562;DHT22;11959;49.418;8.728;2023-04-03T09:19:49;7.00;99.90
23562;DHT22;11959;49.418;8.728;2023-04-03T09:22:38;7.10;99.90
23562;DHT22;11959;49.418;8.728;2023-04-03T09:25:15;7.20;99.90
23562;DHT22;11959;49.418;8.728;2023-04-03T09:27:42;7.30;99.90
23562;DHT22;11959;49.418;8.728;2023-04-03T09:30:14;7.30;99.90
23562;DHT22;11959;49.418;8.728;2023-04-03T09:32:40;7.30;99.90
23562;DHT22;11959;49.418;8.728;2023-04-03T09:35:17;7.30;99.90
23562;DHT22;11959;49.418;8.728;2023-04-03T09:37:58;7.20;99.90
23562;DHT22;11959;49.418;8.728;2023-04-03T09:42:55;7.30;99.90
23562;DHT22;11959;49.418;8.728;2023-04-03T09:45:26;7.20;99.90
23562;DHT22;11959;49.418;8.728;2023-04-03T09:50:30;7.30;99.90
23562;DHT22;11959;49.418;8.728;2023-04-03T09:52:56;7.30;99.90
23562;DHT22;11959;49.418;8.728;2023-04-03T09:55:27;7.30;99.90
23562;DHT22;11959;49.418;8.728;2023-04-03T09:58:02;7.40;99.90
23562;DHT22;11959;49.418;8.728;2023-04-03T10:00:35;7.50;99.90
23562;DHT22;11959;49.418;8.728;2023-04-03T10:03:02;7.60;99.90
23562;DHT22;11959;49.418;8.728;2023-04-03T10:05:40;7.70;99.90
23562;DHT22;11959;49.418;8.728;2023-04-03T10:10:45;7.90;99.90
23562;DHT22;11959;49.418;8.728;2023-04-03T10:13:17;7.90;99.90
23562;DHT22;11959;49.418;8.728;2023-04-03T10:18:29;8.00;99.90
23562;DHT22;11959;49.418;8.728;2023-04-03T10:21:10;8.10;99.90
23562;DHT22;11959;49.418;8.728;2023-04-03T10:24:07;8.20;99.90
23562;DHT22;11959;49.418;8.728;2023-04-03T10:26:38;8.20;99.90
23562;DHT22;11959;49.418;8.728;2023-04-03T10:31:37;8.20;99.90
23562;DHT22;11959;49.418;8.728;2023-04-03T10:34:35;8.10;99.90
23562;DHT22;11959;49.418;8.728;2023-04-03T10:37:34;8.20;99.90
23562;DHT22;11959;49.418;8.728;2023-04-03T10:40:34;8.50;99.90
23562;DHT22;11959;49.418;8.728;2023-04-03T10:43:21;8.50;99.90
23562;DHT22;11959;49.418;8.728;2023-04-03T10:46:12;8.50;99.90
23562;DHT22;11959;49.418;8.728;2023-04-03T10:54:11;8.70;99.60
23562;DHT22;11959;49.418;8.728;2023-04-03T10:59:33;8.70;99.90
23562;DHT22;11959;49.418;8.728;2023-04-03T11:02:22;8.70;99.60
23562;DHT22;11959;49.418;8.728;2023-04-03T11:04:53;8.50;99.80
23562;DHT22;11959;49.418;8.728;2023-04-03T11:07:26;8.40;98.80
23562;DHT22;11959;49.418;8.728;2023-04-03T11:09:57;8.40;99.70
23562;DHT22;11959;49.418;8.728;2023-04-03T11:12:42;8.40;99.90
23562;DHT22;11959;49.418;8.728;2023-04-03T11:15:15;8.40;99.90
23562;DHT22;11959;49.418;8.728;2023-04-03T11:17:50;8.40;99.80
23562;DHT22;11959;49.418;8.728;2023-04-03T11:22:58;8.30;99.90
23562;DHT22;11959;49.418;8.728;2023-04-03T11:25:30;8.30;99.90
23562;DHT22;11959;49.418;8.728;2023-04-03T11:28:03;8.40;99.90
23562;DHT22;11959;49.418;8.728;2023-04-03T11:36:03;8.40;99.90
23562;DHT22;11959;49.418;8.728;2023-04-03T11:38:41;8.30;99.70
23562;DHT22;11959;49.418;8.728;2023-04-03T11:41:09;8.40;99.90
23562;DHT22;11959;49.418;8.728;2023-04-03T11:43:41;8.40;99.90
23562;DHT22;11959;49.418;8.728;2023-04-03T11:46:08;8.30;99.90
23562;DHT22;11959;49.418;8.728;2023-04-03T11:53:54;8.40;99.90
23562;DHT22;11959;49.418;8.728;2023-04-03T11:56:40;8.40;99.90
23562;DHT22;11959;49.418;8.728;2023-04-03T12:01:54;8.40;99.90
23562;DHT22;11959;49.418;8.728;2023-04-03T12:04:23;8.40;99.90
23562;DHT22;11959;49.418;8.728;2023-04-03T12:09:32;8.40;99.90
23562;DHT22;11959;49.418;8.728;2023-04-03T12:12:01;8.40;99.90
23562;DHT22;11959;49.418;8.728;2023-04-03T12:14:28;8.40;99.90
23562;DHT22;11959;49.418;8.728;2023-04-03T12:16:55;8.50;99.90
23562;DHT22;11959;49.418;8.728;2023-04-03T12:19:36;8.60;99.90
23562;DHT22;11959;49.418;8.728;2023-04-03T12:24:30;8.70;99.90
23562;DHT22;11959;49.418;8.728;2023-04-03T12:29:34;8.80;99.30
23562;DHT22;11959;49.418;8.728;2023-04-03T12:32:10;8.80;99.00
23562;DHT22;11959;49.418;8.728;2023-04-03T12:34:47;8.80;98.80
23562;DHT22;11959;49.418;8.728;2023-04-03T12:37:23;8.90;97.90
23562;DHT22;11959;49.418;8.728;2023-04-03T12:40:36;9.10;98.50
23562;DHT22;11959;49.418;8.728;2023-04-03T12:51:16;9.00;99.00
23562;DHT22;11959;49.418;8.728;2023-04-03T12:53:44;8.80;99.40
23562;DHT22;11959;49.418;8.728;2023-04-03T12:58:48;8.80;99.40
23562;DHT22;11959;49.418;8.728;2023-04-03T13:01:17;8.70;99.90
23562;DHT22;11959;49.418;8.728;2023-04-03T13:03:47;8.80;99.30
23562;DHT22;11959;49.418;8.728;2023-04-03T13:06:43;8.90;99.20
23562;DHT22;11959;49.418;8.728;2023-04-03T13:09:29;8.90;99.60
23562;DHT22;11959;49.418;8.728;2023-04-03T13:11:59;9.00;98.00
23562;DHT22;11959;49.418;8.728;2023-04-03T13:14:27;9.00;98.90
23562;DHT22;11959;49.418;8.728;2023-04-03T13:17:03;9.00;98.40
23562;DHT22;11959;49.418;8.728;2023-04-03T13:19:30;9.00;98.80
23562;DHT22;11959;49.418;8.728;2023-04-03T13:22:06;9.10;97.10
23562;DHT22;11959;49.418;8.728;2023-04-03T13:24:37;9.20;96.70
23562;DHT22;11959;49.418;8.728;2023-04-03T13:27:04;9.30;96.40
23562;DHT22;11959;49.418;8.728;2023-04-03T13:29:35;9.30;96.60
23562;DHT22;11959;49.418;8.728;2023-04-03T13:32:03;9.40;95.90
23562;DHT22;11959;49.418;8.728;2023-04-03T13:34:37;9.50;96.30
23562;DHT22;11959;49.418;8.728;2023-04-03T13:37:04;9.40;96.80
23562;DHT22;11959;49.418;8.728;2023-04-03T13:39:32;9.30;96.20
23562;DHT22;11959;49.418;8.728;2023-04-03T13:42:23;9.20;95.70
23562;DHT22;11959;49.418;8.728;2023-04-03T13:44:49;9.10;95.20
23562;DHT22;11959;49.418;8.728;2023-04-03T13:47:41;9.10;95.70
23562;DHT22;11959;49.418;8.728;2023-04-03T13:50:17;9.20;95.00
23562;DHT22;11959;49.418;8.728;2023-04-03T13:55:26;9.40;95.60
23562;DHT22;11959;49.418;8.728;2023-04-03T14:00:36;9.50;93.80
23562;DHT22;11959;49.418;8.728;2023-04-03T14:03:22;9.40;91.30
23562;DHT22;11959;49.418;8.728;2023-04-03T14:05:49;9.20;93.10
23562;DHT22;11959;49.418;8.728;2023-04-03T14:08:17;9.10;92.70
23562;DHT22;11959;49.418;8.728;2023-04-03T14:10:43;9.00;93.00
23562;DHT22;11959;49.418;8.728;2023-04-03T14:13:14;9.10;92.60
23562;DHT22;11959;49.418;8.728;2023-04-03T14:15:41;9.20;93.30
23562;DHT22;11959;49.418;8.728;2023-04-03T14:18:11;9.20;92.00
23562;DHT22;11959;49.418;8.728;2023-04-03T14:20:37;9.30;92.70
23562;DHT22;11959;49.418;8.728;2023-04-03T14:23:02;9.40;93.20
23562;DHT22;11959;49.418;8.728;2023-04-03T14:25:28;9.60;93.00
23562;DHT22;11959;49.418;8.728;2023-04-03T14:27:55;9.60;92.70
23562;DHT22;11959;49.418;8.728;2023-04-03T14:30:22;9.50;91.70
23562;DHT22;11959;49.418;8.728;2023-04-03T14:32:49;9.50;93.20
23562;DHT22;11959;49.418;8.728;2023-04-03T14:35:15;9.60;91.20
23562;DHT22;11959;49.418;8.728;2023-04-03T14:37:41;9.70;90.00
23562;DHT22;11959;49.418;8.728;2023-04-03T14:40:11;9.60;90.30
23562;DHT22;11959;49.418;8.728;2023-04-03T14:42:38;9.50;88.90
23562;DHT22;11959;49.418;8.728;2023-04-03T14:45:06;9.50;90.70
23562;DHT22;11959;49.418;8.728;2023-04-03T14:47:34;9.50;91.30
23562;DHT22;11959;49.418;8.728;2023-04-03T14:50:04;9.40;91.00
23562;DHT22;11959;49.418;8.728;2023-04-03T14:52:35;9.40;90.70
23562;DHT22;11959;49.418;8.728;2023-04-03T14:55:02;9.20;91.60
23562;DHT22;11959;49.418;8.728;2023-04-03T14:57:29;9.30;91.40
23562;DHT22;11959;49.418;8.728;2023-04-03T14:59:56;9.30;90.20
23562;DHT22;11959;49.418;8.728;2023-04-03T15:04:47;9.50;91.20
23562;DHT22;11959;49.418;8.728;2023-04-03T15:07:12;9.60;89.00
23562;DHT22;11959;49.418;8.728;2023-04-03T15:09:39;9.50;90.50
23562;DHT22;11959;49.418;8.728;2023-04-03T15:12:07;9.50;90.40
23562;DHT22;11959;49.418;8.728;2023-04-03T15:14:33;9.40;91.10
23562;DHT22;11959;49.418;8.728;2023-04-03T15:16:59;9.40;90.60
23562;DHT22;11959;49.418;8.728;2023-04-03T15:19:24;9.30;91.30
23562;DHT22;11959;49.418;8.728;2023-04-03T15:21:50;9.30;91.00
23562;DHT22;11959;49.418;8.728;2023-04-03T15:24:16;9.30;90.80
23562;DHT22;11959;49.418;8.728;2023-04-03T15:26:42;9.30;91.20
23562;DHT22;11959;49.418;8.728;2023-04-03T15:29:08;9.20;90.60
23562;DHT22;11959;49.418;8.728;2023-04-03T15:31:34;9.20;90.60
23562;DHT22;11959;49.418;8.728;2023-04-03T15:33:59;9.30;91.30
23562;DHT22;11959;49.418;8.728;2023-04-03T15:36:25;9.30;90.80
23562;DHT22;11959;49.418;8.728;2023-04-03T15:38:51;9.40;90.80
23562;DHT22;11959;49.418;8.728;2023-04-03T15:41:16;9.40;90.50
23562;DHT22;11959;49.418;8.728;2023-04-03T15:43:42;9.50;86.20
23562;DHT22;11959;49.418;8.728;2023-04-03T15:46:08;9.40;88.10
23562;DHT22;11959;49.418;8.728;2023-04-03T15:48:35;9.50;90.00
23562;DHT22;11959;49.418;8.728;2023-04-03T15:51:01;9.40;87.80
23562;DHT22;11959;49.418;8.728;2023-04-03T15:53:27;9.30;90.00
23562;DHT22;11959;49.418;8.728;2023-04-03T15:55:52;9.40;90.80
23562;DHT22;11959;49.418;8.728;2023-04-03T15:58:18;9.50;90.30
23562;DHT22;11959;49.418;8.728;2023-04-03T16:00:44;9.60;90.00
23562;DHT22;11959;49.418;8.728;2023-04-03T16:03:11;9.60;90.30
23562;DHT22;11959;49.418;8.728;2023-04-03T16:05:40;9.70;90.60
23562;DHT22;11959;49.418;8.728;2023-04-03T16:08:06;9.70;90.40
23562;DHT22;11959;49.418;8.728;2023-04-03T16:10:34;9.60;90.30
23562;DHT22;11959;49.418;8.728;2023-04-03T16:13:00;9.50;90.00
23562;DHT22;11959;49.418;8.728;2023-04-03T16:15:26;9.60;90.20
23562;DHT22;11959;49.418;8.728;2023-04-03T16:17:52;9.50;90.00
23562;DHT22;11959;49.418;8.728;2023-04-03T16:20:18;9.50;89.30
23562;DHT22;11959;49.418;8.728;2023-04-03T16:22:44;9.40;87.60
23562;DHT22;11959;49.418;8.728;2023-04-03T16:25:11;9.50;88.70
23562;DHT22;11959;49.418;8.728;2023-04-03T16:27:37;9.60;89.20
23562;DHT22;11959;49.418;8.728;2023-04-03T16:30:03;9.50;90.60
23562;DHT22;11959;49.418;8.728;2023-04-03T16:32:31;9.50;87.80
23562;DHT22;11959;49.418;8.728;2023-04-03T16:34:58;9.60;88.90
23562;DHT22;11959;49.418;8.728;2023-04-03T16:37:23;9.50;88.50
23562;DHT22;11959;49.418;8.728;2023-04-03T16:39:49;9.60;89.00
23562;DHT22;11959;49.418;8.728;2023-04-03T16:42:15;9.50;88.60
23562;DHT22;11959;49.418;8.728;2023-04-03T16:44:41;9.50;88.50
23562;DHT22;11959;49.418;8.728;2023-04-03T16:47:07;9.50;87.50
23562;DHT22;11959;49.418;8.728;2023-04-03T16:49:33;9.50;88.80
23562;DHT22;11959;49.418;8.728;2023-04-03T16:52:00;9.40;87.90
23562;DHT22;11959;49.418;8.728;2023-04-03T16:54:26;9.30;88.00
23562;DHT22;11959;49.418;8.728;2023-04-03T16:56:52;9.30;89.30
23562;DHT22;11959;49.418;8.728;2023-04-03T16:59:18;9.30;87.60
23562;DHT22;11959;49.418;8.728;2023-04-03T17:01:44;9.20;89.00
23562;DHT22;11959;49.418;8.728;2023-04-03T17:04:09;9.20;89.90
23562;DHT22;11959;49.418;8.728;2023-04-03T17:06:35;9.30;88.00
23562;DHT22;11959;49.418;8.728;2023-04-03T17:09:01;9.20;89.90
23562;DHT22;11959;49.418;8.728;2023-04-03T17:11:27;9.10;88.10
23562;DHT22;11959;49.418;8.728;2023-04-03T17:13:53;9.10;89.50
23562;DHT22;11959;49.418;8.728;2023-04-03T17:16:19;9.00;89.40